Apulia Station, New York
Current Conditions -  °F | °C
As of 7:15 AM on Sunday 25 Jan 2015 (Local Time) from KN03 Reporting Station
Broken Clouds Broken Clouds  
Wind Chill: 16°   Ceiling: 3200
Heat Index: 27°   Visibility: 10mi
Dew Point: 18°   Wind: 12mph
Humidity: 69%   Direction: 290°WNW
Pressure: 29.69"   Gusts: 22mph
Location:  42.82°N, 76.07°W
Report Text: KN03 251215Z AUTO 29010G19KT 10SM SCT026 BKN032 M03/M08 A2969 RMK AO2
Loading
Personal Weather Stations






























Interactive Weather Map New forecast layout! Learn more

10-Day Weather Forecast

Advertisements
Track Severe Weather on mobile